Aeroporto :
LOGIN :

Iscrizione | Disclaimer

   EN    FR    IT 

 










Sommario :    VFR   VFR Marginale   IFR   IFR Intensivo   IFR Molto Intensivo
Visibilità : 
Base nubi : 
>= 8 km
>= 3000ft
5 / 8 km
1000 / 3000 ft
1500m / 5 km
500 / 1000 ft
800 / 1500m
200 / 500 ft
< 800m
< 200 ft
Simboli :   Temporali  Nebbia  Neve Forte  Precipitazioni Forti  Vento > 20 kt
SIGMETs :   Varie  Temporali  Ghiacco  Turbolenza  Onda orograficha  Ceneri Vulcaniche






- Altitudine del aeroporto : 17 ft
- Codice IATA : MPL


LFMT - Montpellier Méditerranée

ULTIMO METAR :
  • 261730Z AUTO 23005KT CAVOK 28/10 Q1023 NOSIG

METARs OBSOLETI :
  • 261700Z AUTO 20007KT 170V230 CAVOK 27/14 Q1023 NOSIG
  • 261630Z AUTO 21008KT CAVOK 27/13 Q1023 NOSIG
  • 261600Z AUTO 21008KT CAVOK 27/12 Q1023 NOSIG
  • 261530Z AUTO 20007KT 160V220 CAVOK 27/12 Q1023 NOSIG
  • 261500Z AUTO 19008KT CAVOK 28/13 Q1023 NOSIG

TAF TAF LFMT
Valido dal 26 a 15 ore il 27 a 15 ore UTC


261400Z 2615/2715 19010KT CAVOK
BECMG 2619/2621 32004KT
BECMG 2706/2708 07010KT
BECMG 2709/2711 16010KT
ATIS : +33 4 67 13 11 70



MetMap, La meteo Aeronautica in un colpo d'occhio ! - Copyright ORBIFLY Dicembre 2007 - Disclaimer

ORBIFLY MET'MAP TEAM :

Programmazione e sviluppo : Alexandra Zaïnal
Concezione : Baudouin d'Aumeries
Aiuto per la programmazione : Marc-Olivier Méhu
Supporto tecnico e logistico : Manuel Goepfert
Aiuto per la traduzione : Arnaldo La Scala

Contatto : metmap@orbifly.com




FONTI E CREDITI :

   NOAA